createdAt,value
2018-12-19T00:01:23.305Z,14.33
2018-12-19T00:03:57.509Z,15.45
2018-12-19T00:06:37.075Z,16.20
2018-12-19T00:09:13.654Z,16.80
2018-12-19T00:11:47.411Z,16.80
2018-12-19T00:17:28.229Z,20.50
2018-12-19T00:20:09.012Z,19.98
2018-12-19T00:22:42.649Z,18.30
2018-12-19T00:25:16.141Z,20.75
2018-12-19T00:30:35.335Z,23.02
2018-12-19T00:33:13.078Z,25.62
2018-12-19T00:35:52.485Z,27.45
2018-12-19T00:41:58.079Z,9.95
2018-12-19T00:44:38.669Z,9.58
2018-12-19T00:47:09.154Z,7.67
2018-12-19T00:49:46.710Z,7.87
2018-12-19T00:52:24.228Z,8.33
2018-12-19T00:54:54.855Z,9.43
2018-12-19T00:57:32.351Z,11.28
2018-12-19T01:00:03.566Z,12.93
2018-12-19T01:02:41.135Z,11.15
2018-12-19T01:05:20.026Z,11.45
2018-12-19T01:08:00.811Z,12.15
2018-12-19T01:10:34.841Z,10.10
2018-12-19T01:13:13.187Z,10.15
2018-12-19T01:15:43.950Z,11.83
2018-12-19T01:18:16.709Z,10.65
2018-12-19T01:20:51.288Z,10.43
2018-12-19T01:23:23.793Z,11.28
2018-12-19T01:26:14.507Z,13.05
2018-12-19T01:28:53.034Z,12.58
2018-12-19T01:31:27.463Z,11.35
2018-12-19T01:34:04.886Z,11.70
2018-12-19T01:36:38.414Z,9.70
2018-12-19T01:39:11.033Z,10.53
2018-12-19T01:41:40.724Z,11.40
2018-12-19T01:44:19.000Z,11.05
2018-12-19T01:46:57.865Z,9.98
2018-12-19T01:49:32.392Z,9.30
2018-12-19T01:52:05.946Z,9.18
2018-12-19T01:54:40.361Z,9.65
2018-12-19T01:57:29.883Z,9.10
2018-12-19T02:00:03.664Z,8.63
2018-12-19T02:02:43.237Z,9.75
2018-12-19T02:05:22.849Z,9.03
2018-12-19T02:07:57.404Z,9.10
2018-12-19T02:10:31.923Z,8.93
2018-12-19T02:13:02.490Z,9.10
2018-12-19T02:15:32.958Z,8.70
2018-12-19T02:18:06.692Z,8.95
2018-12-19T02:20:44.978Z,9.08
2018-12-19T02:23:23.336Z,10.80
2018-12-19T02:25:56.149Z,10.72
2018-12-19T02:28:50.610Z,15.25
2018-12-19T02:31:52.048Z,13.55
2018-12-19T02:34:29.302Z,15.95
2018-12-19T02:37:03.940Z,15.88
2018-12-19T02:39:37.399Z,15.13
2018-12-19T02:42:09.918Z,17.10
2018-12-19T02:44:45.421Z,18.48
2018-12-19T02:47:18.987Z,17.77
2018-12-19T02:50:02.967Z,14.60
2018-12-19T02:52:36.820Z,15.95
2018-12-19T02:55:14.718Z,13.45
2018-12-19T02:57:49.271Z,13.38
2018-12-19T03:00:26.855Z,12.73
2018-12-19T03:03:05.110Z,10.80
2018-12-19T03:05:35.940Z,10.95
2018-12-19T03:08:16.529Z,9.78
2018-12-19T03:10:54.826Z,10.48
2018-12-19T03:13:28.585Z,10.40
2018-12-19T03:16:07.482Z,10.03
2018-12-19T03:18:40.741Z,9.98
2018-12-19T03:21:15.681Z,10.72
2018-12-19T03:23:53.809Z,10.70
2018-12-19T03:26:27.417Z,8.45
2018-12-19T03:32:21.952Z,8.08
2018-12-19T03:35:00.258Z,10.20
2018-12-19T03:37:35.416Z,14.40
2018-12-19T03:40:14.106Z,13.83
2018-12-19T03:42:55.016Z,10.82
2018-12-19T03:45:25.820Z,11.68
2018-12-19T03:48:13.490Z,10.93
2018-12-19T03:52:40.866Z,9.35
2018-12-19T03:55:32.669Z,9.70
2018-12-19T06:00:22.066Z,12.43
2018-12-19T06:06:21.038Z,12.63
2018-12-19T06:12:54.326Z,10.63
2018-12-19T06:33:03.260Z,12.47
2018-12-19T06:35:38.255Z,12.82
2018-12-19T06:38:11.931Z,10.72
2018-12-19T06:40:50.952Z,10.43
2018-12-19T06:43:28.278Z,12.03
2018-12-19T06:46:02.238Z,11.25
2018-12-19T07:02:27.805Z,11.93
2018-12-19T07:05:10.389Z,11.80
2018-12-19T07:07:46.865Z,10.23
2018-12-19T07:10:24.796Z,11.73
2018-12-19T07:13:02.889Z,11.20
2018-12-19T07:15:40.757Z,12.47
2018-12-19T07:18:11.487Z,14.40
2018-12-19T07:20:46.414Z,12.07
2018-12-19T07:23:24.750Z,9.45
2018-12-19T07:25:58.038Z,9.58
2018-12-19T07:28:30.615Z,9.70
2018-12-19T07:31:08.562Z,11.08
2018-12-19T07:33:40.548Z,10.78
2018-12-19T07:36:17.544Z,10.00
2018-12-19T07:38:56.005Z,11.80
2018-12-19T07:41:29.483Z,11.20
2018-12-19T07:44:07.473Z,9.75
2018-12-19T07:46:44.499Z,8.25
2018-12-19T07:49:21.438Z,9.35
2018-12-19T07:51:54.401Z,9.73
2018-12-19T07:54:27.344Z,11.10
2018-12-19T07:57:05.350Z,9.53
2018-12-19T07:59:35.284Z,10.78
2018-12-19T08:02:05.146Z,9.83
2018-12-19T08:04:35.750Z,11.70
2018-12-19T08:07:04.934Z,10.65
2018-12-19T08:09:37.901Z,10.30
2018-12-19T08:12:15.875Z,11.00
2018-12-19T08:14:45.683Z,12.00
2018-12-19T08:17:20.263Z,11.35
2018-12-19T08:19:58.307Z,13.15
2018-12-19T08:22:32.583Z,10.55
2018-12-19T08:25:06.657Z,10.08
2018-12-19T08:27:39.542Z,11.65
2018-12-19T08:30:16.518Z,12.37
2018-12-19T08:32:49.538Z,14.78
2018-12-19T08:35:20.335Z,14.38
2018-12-19T08:37:53.382Z,15.00
2018-12-19T08:40:32.410Z,16.65
2018-12-19T08:43:07.086Z,17.62
2018-12-19T08:45:41.088Z,17.87
2018-12-19T08:48:19.332Z,17.27
2018-12-19T08:50:56.315Z,16.57
2018-12-19T08:53:33.302Z,16.45
2018-12-19T08:56:10.341Z,17.25
2018-12-19T08:58:44.997Z,15.93
2018-12-19T09:01:15.177Z,17.62
2018-12-19T09:03:49.126Z,16.10
2018-12-19T09:06:19.079Z,16.80
2018-12-19T09:08:56.025Z,17.85
2018-12-19T09:11:26.695Z,15.80
2018-12-19T09:14:00.610Z,15.60
2018-12-19T09:16:33.845Z,17.30
2018-12-19T09:19:10.840Z,16.40
2018-12-19T09:21:43.784Z,17.20
2018-12-19T09:24:16.737Z,16.60
2018-12-19T09:26:53.724Z,18.00
2018-12-19T09:29:33.383Z,16.17
2018-12-19T09:32:04.842Z,17.60
2018-12-19T09:34:42.687Z,19.50
2018-12-19T09:37:16.641Z,21.40
2018-12-19T09:39:47.848Z,19.85
2018-12-19T09:42:22.250Z,17.60
2018-12-19T09:44:55.477Z,18.70
2018-12-19T09:47:29.316Z,16.90
2018-12-19T09:50:07.135Z,16.67
2018-12-19T09:52:40.314Z,20.30
2018-12-19T09:55:13.338Z,17.42
2018-12-19T09:57:47.298Z,16.07
2018-12-19T10:00:22.275Z,18.50
2018-12-19T10:02:56.968Z,18.98
2018-12-19T10:05:35.082Z,17.45
2018-12-19T10:08:06.206Z,17.57
2018-12-19T10:10:39.976Z,16.65
2018-12-19T10:13:17.918Z,18.42
2018-12-19T10:15:55.157Z,16.85
2018-12-19T10:18:33.609Z,17.42
2018-12-19T10:21:10.146Z,18.27
2018-12-19T10:23:48.883Z,17.55
2018-12-19T10:26:20.446Z,18.57
2018-12-19T10:28:50.929Z,17.75
2018-12-19T10:31:29.765Z,17.82
2018-12-19T10:34:02.982Z,18.13
2018-12-19T10:36:40.832Z,18.00
2018-12-19T10:39:18.767Z,17.60
2018-12-19T10:41:56.043Z,19.33
2018-12-19T10:44:29.991Z,16.67
2018-12-19T10:46:59.932Z,18.50
2018-12-19T10:49:30.584Z,18.00
2018-12-19T10:52:09.843Z,18.23
2018-12-19T10:54:42.794Z,18.67
2018-12-19T10:57:20.822Z,18.53
2018-12-19T10:59:53.741Z,18.43
2018-12-19T11:02:32.465Z,18.30
2018-12-19T11:05:10.790Z,17.90
2018-12-19T11:07:47.751Z,17.80
2018-12-19T11:10:26.265Z,20.37
2018-12-19T11:13:09.894Z,23.37
2018-12-19T11:15:39.864Z,24.23
2018-12-19T11:18:16.819Z,25.33
2018-12-19T11:21:08.014Z,26.20
2018-12-19T11:23:47.072Z,25.70
2018-12-19T11:26:24.756Z,20.10
2018-12-19T11:28:58.066Z,21.37
2018-12-19T11:31:37.761Z,23.10
2018-12-19T11:34:11.923Z,21.73
2018-12-19T11:36:50.769Z,25.15
2018-12-19T11:39:20.958Z,27.10
2018-12-19T11:41:57.959Z,26.73
2018-12-19T11:47:39.841Z,23.20
2018-12-19T11:50:18.585Z,23.98
2018-12-19T11:52:52.010Z,27.02
2018-12-19T11:55:34.288Z,23.42
2018-12-19T11:58:09.083Z,23.30
2018-12-19T12:00:52.457Z,24.75
2018-12-19T12:03:26.419Z,26.02
2018-12-19T12:06:05.148Z,24.02
2018-12-19T12:08:42.141Z,24.65
2018-12-19T12:11:21.194Z,25.50
2018-12-19T12:14:01.512Z,27.22
2018-12-19T12:23:29.709Z,28.00
2018-12-19T12:25:58.763Z,25.15
2018-12-19T12:28:35.597Z,27.80
2018-12-19T12:31:12.606Z,27.58
2018-12-19T12:33:42.416Z,26.95
2018-12-19T12:39:42.125Z,20.00
2018-12-19T12:42:15.061Z,16.40
2018-12-19T12:44:51.951Z,15.18
2018-12-19T12:47:25.750Z,13.58
2018-12-19T12:49:59.013Z,12.35
2018-12-19T12:52:31.954Z,12.82
2018-12-19T12:55:05.910Z,13.65
2018-12-19T12:57:36.523Z,13.22
2018-12-19T13:00:10.625Z,13.22
2018-12-19T13:02:43.639Z,12.45
2018-12-19T13:05:22.029Z,13.18
2018-12-19T13:07:55.627Z,13.00
2018-12-19T13:10:27.908Z,12.75
2018-12-19T13:13:04.707Z,13.55
2018-12-19T13:15:47.514Z,14.30
2018-12-19T13:18:21.569Z,16.62
2018-12-19T13:20:54.709Z,16.40
2018-12-19T13:23:24.517Z,18.35
2018-12-19T13:25:57.567Z,16.32
2018-12-19T13:28:30.532Z,16.65
2018-12-19T13:31:07.535Z,15.70
2018-12-19T13:33:44.450Z,14.63
2018-12-19T13:36:17.460Z,12.90
2018-12-19T13:38:47.985Z,14.73
2018-12-19T13:41:17.350Z,12.90
2018-12-19T13:43:54.351Z,12.47
2018-12-19T13:46:28.022Z,10.72
2018-12-19T13:49:06.043Z,11.95
2018-12-19T13:51:43.331Z,12.50
2018-12-19T13:54:16.150Z,10.60
2018-12-19T13:56:49.269Z,12.30
2018-12-19T13:59:26.939Z,15.35
2018-12-19T14:01:56.129Z,12.45
2018-12-19T14:04:28.001Z,11.12
2018-12-19T14:10:27.655Z,12.82
2018-12-19T14:13:01.597Z,12.18
2018-12-19T14:15:31.521Z,13.10
2018-12-19T14:18:02.399Z,15.20
2018-12-19T14:20:39.454Z,13.03
2018-12-19T14:23:14.005Z,13.00
2018-12-19T14:25:51.424Z,12.35
2018-12-19T14:28:25.375Z,12.65
2018-12-19T14:31:03.398Z,11.50
2018-12-19T14:33:37.358Z,12.75
2018-12-19T14:36:08.701Z,13.65
2018-12-19T14:38:42.825Z,13.03
2018-12-19T14:41:16.171Z,13.45
2018-12-19T14:43:49.694Z,12.10
2018-12-19T14:46:25.130Z,13.18
2018-12-19T14:49:14.160Z,13.38
2018-12-19T14:51:48.125Z,13.85
2018-12-19T14:54:21.162Z,13.95
2018-12-19T14:56:55.818Z,13.45
2018-12-19T14:59:26.015Z,13.13
2018-12-19T15:01:59.991Z,12.63
2018-12-19T15:04:34.865Z,12.55
2018-12-19T15:07:11.934Z,13.70
2018-12-19T15:09:50.521Z,12.35
2018-12-19T15:12:28.970Z,13.80
2018-12-19T15:15:08.883Z,14.25
2018-12-19T15:17:47.002Z,13.32
2018-12-19T15:20:35.240Z,14.07
2018-12-19T15:23:14.147Z,13.00
2018-12-19T15:25:43.974Z,14.45
2018-12-19T15:28:16.907Z,13.70
2018-12-19T15:30:49.949Z,14.78
2018-12-19T15:33:27.898Z,14.38
2018-12-19T15:36:01.610Z,15.85
2018-12-19T15:38:38.885Z,13.45
2018-12-19T15:41:12.556Z,13.98
2018-12-19T15:43:49.833Z,15.65
2018-12-19T15:46:28.566Z,15.10
2018-12-19T15:48:58.663Z,15.65
2018-12-19T15:51:28.572Z,14.30
2018-12-19T15:54:01.597Z,14.65
2018-12-19T15:56:31.382Z,15.25
2018-12-19T15:59:01.292Z,15.48
2018-12-19T16:01:32.237Z,14.65
2018-12-19T16:04:05.124Z,14.00
2018-12-19T16:06:42.229Z,14.47
2018-12-19T16:09:19.116Z,14.07
2018-12-19T16:11:49.037Z,14.85
2018-12-19T16:17:27.384Z,14.10
2018-12-19T16:19:56.433Z,14.35
2018-12-19T16:22:26.027Z,15.05
2018-12-19T16:28:29.739Z,14.47
2018-12-19T16:31:00.323Z,17.32
2018-12-19T16:33:37.658Z,13.75
2018-12-19T16:36:10.496Z,15.18
2018-12-19T16:38:47.417Z,14.63
2018-12-19T16:41:24.534Z,16.05
2018-12-19T16:47:23.058Z,15.80
2018-12-19T16:53:18.547Z,15.15
2018-12-19T16:55:55.524Z,16.70
2018-12-19T16:58:25.385Z,17.12
2018-12-19T17:01:02.306Z,16.65
2018-12-19T17:03:39.257Z,18.17
2018-12-19T17:06:09.145Z,14.23
2018-12-19T17:08:42.075Z,14.80
2018-12-19T17:11:19.048Z,15.48
2018-12-19T17:13:56.015Z,15.90
2018-12-19T17:16:32.759Z,14.93
2018-12-19T17:19:09.970Z,16.45
2018-12-19T17:21:42.963Z,17.62
2018-12-19T17:24:15.957Z,17.42
2018-12-19T17:26:49.761Z,20.52
2018-12-19T17:29:19.647Z,17.17
2018-12-19T17:31:52.392Z,20.02
2018-12-19T17:34:26.506Z,17.45
2018-12-19T17:36:59.569Z,16.55
2018-12-19T17:39:32.497Z,17.07
2018-12-19T17:42:05.420Z,16.00
2018-12-19T17:44:42.286Z,18.95
2018-12-19T17:47:19.418Z,16.57
2018-12-19T17:49:52.304Z,16.60
2018-12-19T17:52:27.254Z,18.37
2018-12-19T17:55:01.192Z,21.33
2018-12-19T17:57:35.146Z,21.60
2018-12-19T18:00:06.043Z,19.10
2018-12-19T18:02:43.023Z,21.97
2018-12-19T18:05:20.150Z,22.10
2018-12-19T18:07:57.703Z,20.77
2018-12-19T18:10:30.894Z,19.73
2018-12-19T18:13:06.056Z,16.90
2018-12-19T18:15:32.609Z,16.62
2018-12-19T18:18:02.620Z,18.52
2018-12-19T18:20:33.385Z,18.20
2018-12-19T18:23:08.681Z,18.12
2018-12-19T18:25:40.282Z,20.60
2018-12-19T18:28:19.386Z,21.65
2018-12-19T18:30:53.331Z,22.55
2018-12-19T18:33:23.098Z,22.32
2018-12-19T18:35:56.881Z,21.90
2018-12-19T18:38:34.147Z,21.85
2018-12-19T18:41:04.037Z,19.92
2018-12-19T18:43:38.694Z,19.42
2018-12-19T18:46:17.035Z,21.20
2018-12-19T18:49:35.814Z,19.45
2018-12-19T18:52:36.050Z,20.90
2018-12-19T18:55:14.453Z,18.07
2018-12-19T18:57:53.706Z,22.05
2018-12-19T19:00:34.826Z,22.07
2018-12-19T19:03:08.796Z,24.55
2018-12-19T19:05:48.758Z,23.92
2018-12-19T19:08:22.738Z,20.65
2018-12-19T19:10:53.298Z,22.27
2018-12-19T19:13:33.310Z,21.45
2018-12-19T19:16:03.538Z,23.42
2018-12-19T19:18:37.442Z,21.70
2018-12-19T19:21:11.419Z,21.93
2018-12-19T19:23:45.330Z,21.50
2018-12-19T19:26:15.957Z,21.07
2018-12-19T19:28:53.245Z,23.10
2018-12-19T19:31:25.848Z,20.82
2018-12-19T19:34:27.806Z,21.68
2018-12-19T19:37:20.818Z,21.60
2018-12-19T19:43:15.611Z,19.25
2018-12-19T19:46:08.902Z,21.80
2018-12-19T19:48:39.173Z,19.17
2018-12-19T19:51:16.906Z,23.70
2018-12-19T19:53:54.174Z,23.83
2018-12-19T19:56:32.168Z,23.02
2018-12-19T19:59:09.904Z,22.35
2018-12-19T20:01:43.066Z,21.82
2018-12-19T20:04:21.091Z,22.13
2018-12-19T20:07:00.885Z,22.50
2018-12-19T20:10:06.784Z,20.68
2018-12-19T20:12:45.823Z,22.40
2018-12-19T20:15:21.101Z,20.75
2018-12-19T20:18:41.770Z,21.82
2018-12-19T20:22:00.475Z,21.33
2018-12-19T20:24:35.282Z,23.65
2018-12-19T20:27:13.356Z,23.25
2018-12-19T20:29:52.060Z,21.60
2018-12-19T20:32:22.257Z,21.60
2018-12-19T20:34:56.126Z,21.93
2018-12-19T20:37:32.879Z,23.25
2018-12-19T20:40:11.189Z,22.87
2018-12-19T20:52:47.463Z,20.27
2018-12-19T20:55:17.621Z,21.55
2018-12-19T20:57:54.743Z,22.48
2018-12-19T21:00:33.561Z,23.60
2018-12-19T21:03:12.592Z,22.07
2018-12-19T21:05:43.247Z,23.15
2018-12-19T21:08:23.258Z,23.65
2018-12-19T21:11:01.262Z,20.90
2018-12-19T21:13:32.149Z,25.43
2018-12-19T21:16:02.302Z,22.50
2018-12-19T21:18:50.121Z,22.77
2018-12-19T21:21:31.284Z,21.17
2018-12-19T21:27:44.943Z,21.27
2018-12-19T21:30:18.911Z,22.07
2018-12-19T21:32:57.713Z,20.27
2018-12-19T21:35:35.892Z,21.82
2018-12-19T21:38:18.207Z,23.45
2018-12-19T21:40:49.684Z,21.82
2018-12-19T21:43:31.918Z,23.35
2018-12-19T21:46:12.498Z,23.45
2018-12-19T21:55:12.014Z,23.62
2018-12-19T21:57:50.741Z,22.93
2018-12-19T22:00:35.282Z,23.65
2018-12-19T22:09:53.177Z,23.57
2018-12-19T22:13:01.635Z,20.10
2018-12-19T22:22:48.099Z,20.20
2018-12-19T22:25:40.608Z,22.77
2018-12-19T22:28:41.507Z,21.70
2018-12-19T22:31:49.687Z,23.52
2018-12-19T22:34:57.367Z,20.17
2018-12-19T22:37:36.250Z,22.32
2018-12-19T22:40:13.030Z,19.30
2018-12-19T23:00:08.595Z,20.97
2018-12-19T23:03:00.139Z,21.73
2018-12-19T23:05:54.998Z,24.90
2018-12-19T23:19:12.685Z,22.05
2018-12-19T23:21:47.535Z,20.30
2018-12-19T23:25:04.330Z,22.52
2018-12-19T23:27:59.571Z,23.47
